sensor_id;sensor_type;location;lat;lon;timestamp;temperature;humidity
25024;DHT22;13033;50.936;5.334;2024-03-25T00:00:11;5.50;73.50
25024;DHT22;13033;50.936;5.334;2024-03-25T00:02:41;5.60;70.90
25024;DHT22;13033;50.936;5.334;2024-03-25T00:05:07;5.60;67.90
25024;DHT22;13033;50.936;5.334;2024-03-25T00:07:37;5.80;58.50
25024;DHT22;13033;50.936;5.334;2024-03-25T00:10:03;5.70;53.70
25024;DHT22;13033;50.936;5.334;2024-03-25T00:12:32;5.70;57.20
25024;DHT22;13033;50.936;5.334;2024-03-25T00:14:57;5.70;54.70
25024;DHT22;13033;50.936;5.334;2024-03-25T00:17:23;5.60;58.70
25024;DHT22;13033;50.936;5.334;2024-03-25T00:19:49;5.60;69.60
25024;DHT22;13033;50.936;5.334;2024-03-25T00:22:18;5.60;65.30
25024;DHT22;13033;50.936;5.334;2024-03-25T00:24:47;5.60;67.60
25024;DHT22;13033;50.936;5.334;2024-03-25T00:27:14;5.80;63.80
25024;DHT22;13033;50.936;5.334;2024-03-25T00:29:40;5.70;58.40
25024;DHT22;13033;50.936;5.334;2024-03-25T00:32:06;5.60;65.80
25024;DHT22;13033;50.936;5.334;2024-03-25T00:34:32;5.50;70.40
25024;DHT22;13033;50.936;5.334;2024-03-25T00:36:58;5.50;80.90
25024;DHT22;13033;50.936;5.334;2024-03-25T00:39:24;5.60;80.90
25024;DHT22;13033;50.936;5.334;2024-03-25T00:41:51;5.60;79.40
25024;DHT22;13033;50.936;5.334;2024-03-25T00:44:17;5.50;80.90
25024;DHT22;13033;50.936;5.334;2024-03-25T00:46:42;5.50;80.80
25024;DHT22;13033;50.936;5.334;2024-03-25T00:49:09;5.60;77.10
25024;DHT22;13033;50.936;5.334;2024-03-25T00:51:35;5.50;77.40
25024;DHT22;13033;50.936;5.334;2024-03-25T00:54:01;5.60;76.60
25024;DHT22;13033;50.936;5.334;2024-03-25T00:56:27;5.60;81.90
25024;DHT22;13033;50.936;5.334;2024-03-25T00:58:53;5.50;90.70
25024;DHT22;13033;50.936;5.334;2024-03-25T01:01:18;5.50;93.00
25024;DHT22;13033;50.936;5.334;2024-03-25T01:03:44;5.50;99.90
25024;DHT22;13033;50.936;5.334;2024-03-25T01:06:10;5.40;99.90
25024;DHT22;13033;50.936;5.334;2024-03-25T01:08:35;5.50;99.90
25024;DHT22;13033;50.936;5.334;2024-03-25T01:11:01;5.40;99.90
25024;DHT22;13033;50.936;5.334;2024-03-25T01:13:27;5.40;99.90
25024;DHT22;13033;50.936;5.334;2024-03-25T01:15:52;5.30;90.20
25024;DHT22;13033;50.936;5.334;2024-03-25T01:18:18;5.40;89.20
25024;DHT22;13033;50.936;5.334;2024-03-25T01:20:43;5.40;97.60
25024;DHT22;13033;50.936;5.334;2024-03-25T01:23:10;5.40;99.90
25024;DHT22;13033;50.936;5.334;2024-03-25T01:25:35;5.40;99.90
25024;DHT22;13033;50.936;5.334;2024-03-25T01:28:01;5.40;99.90
25024;DHT22;13033;50.936;5.334;2024-03-25T01:30:27;5.50;99.90
25024;DHT22;13033;50.936;5.334;2024-03-25T01:32:54;5.30;99.90
25024;DHT22;13033;50.936;5.334;2024-03-25T01:35:20;5.40;99.90
25024;DHT22;13033;50.936;5.334;2024-03-25T01:37:46;5.30;99.90
25024;DHT22;13033;50.936;5.334;2024-03-25T01:40:12;5.30;99.90
25024;DHT22;13033;50.936;5.334;2024-03-25T01:42:38;5.50;99.90
25024;DHT22;13033;50.936;5.334;2024-03-25T01:45:04;5.40;99.90
25024;DHT22;13033;50.936;5.334;2024-03-25T01:47:31;5.40;99.90
25024;DHT22;13033;50.936;5.334;2024-03-25T01:49:59;5.40;99.90
25024;DHT22;13033;50.936;5.334;2024-03-25T01:52:26;5.50;99.90
25024;DHT22;13033;50.936;5.334;2024-03-25T01:54:52;5.40;99.90
25024;DHT22;13033;50.936;5.334;2024-03-25T01:57:19;5.30;99.90
25024;DHT22;13033;50.936;5.334;2024-03-25T01:59:45;5.30;99.90
25024;DHT22;13033;50.936;5.334;2024-03-25T02:02:12;5.30;99.90
25024;DHT22;13033;50.936;5.334;2024-03-25T02:04:39;5.20;99.90
25024;DHT22;13033;50.936;5.334;2024-03-25T02:07:07;5.10;99.90
25024;DHT22;13033;50.936;5.334;2024-03-25T02:09:34;5.00;99.90
25024;DHT22;13033;50.936;5.334;2024-03-25T02:12:02;5.10;99.90
25024;DHT22;13033;50.936;5.334;2024-03-25T02:14:27;5.10;99.90
25024;DHT22;13033;50.936;5.334;2024-03-25T02:16:53;5.10;99.90
25024;DHT22;13033;50.936;5.334;2024-03-25T02:19:20;5.10;99.90
25024;DHT22;13033;50.936;5.334;2024-03-25T02:21:47;5.10;99.90
25024;DHT22;13033;50.936;5.334;2024-03-25T02:24:14;5.00;99.90
25024;DHT22;13033;50.936;5.334;2024-03-25T02:26:41;5.00;99.90
25024;DHT22;13033;50.936;5.334;2024-03-25T02:29:09;5.00;99.90
25024;DHT22;13033;50.936;5.334;2024-03-25T02:31:35;5.10;99.90
25024;DHT22;13033;50.936;5.334;2024-03-25T02:34:00;5.00;99.90
25024;DHT22;13033;50.936;5.334;2024-03-25T02:36:26;4.90;99.90
25024;DHT22;13033;50.936;5.334;2024-03-25T02:38:52;5.00;99.90
25024;DHT22;13033;50.936;5.334;2024-03-25T02:41:18;5.00;99.90
25024;DHT22;13033;50.936;5.334;2024-03-25T02:43:44;4.90;99.90
25024;DHT22;13033;50.936;5.334;2024-03-25T02:46:10;4.90;99.90
25024;DHT22;13033;50.936;5.334;2024-03-25T02:48:35;4.80;99.90
25024;DHT22;13033;50.936;5.334;2024-03-25T02:51:01;4.80;99.90
25024;DHT22;13033;50.936;5.334;2024-03-25T02:53:26;4.70;99.90
25024;DHT22;13033;50.936;5.334;2024-03-25T02:55:52;4.80;99.90
25024;DHT22;13033;50.936;5.334;2024-03-25T02:58:18;5.00;99.90
25024;DHT22;13033;50.936;5.334;2024-03-25T03:00:43;5.00;99.90
25024;DHT22;13033;50.936;5.334;2024-03-25T03:03:09;5.00;99.90
25024;DHT22;13033;50.936;5.334;2024-03-25T03:05:34;5.10;99.90
25024;DHT22;13033;50.936;5.334;2024-03-25T03:08:00;5.20;99.90
25024;DHT22;13033;50.936;5.334;2024-03-25T03:10:26;5.00;99.90
25024;DHT22;13033;50.936;5.334;2024-03-25T03:12:52;4.90;99.90
25024;DHT22;13033;50.936;5.334;2024-03-25T03:15:17;4.80;99.90
25024;DHT22;13033;50.936;5.334;2024-03-25T03:17:43;4.70;99.90
25024;DHT22;13033;50.936;5.334;2024-03-25T03:20:09;4.70;99.90
25024;DHT22;13033;50.936;5.334;2024-03-25T03:22:35;4.50;99.90
25024;DHT22;13033;50.936;5.334;2024-03-25T03:25:01;4.60;99.90
25024;DHT22;13033;50.936;5.334;2024-03-25T03:27:26;4.60;99.90
25024;DHT22;13033;50.936;5.334;2024-03-25T03:29:52;4.70;99.90
25024;DHT22;13033;50.936;5.334;2024-03-25T03:32:18;4.70;99.90
25024;DHT22;13033;50.936;5.334;2024-03-25T03:34:44;4.80;99.90
25024;DHT22;13033;50.936;5.334;2024-03-25T03:37:09;4.80;99.90
25024;DHT22;13033;50.936;5.334;2024-03-25T03:39:35;4.70;99.90
25024;DHT22;13033;50.936;5.334;2024-03-25T03:42:01;4.70;99.90
25024;DHT22;13033;50.936;5.334;2024-03-25T03:44:26;4.60;99.90
25024;DHT22;13033;50.936;5.334;2024-03-25T03:46:52;4.60;99.90
25024;DHT22;13033;50.936;5.334;2024-03-25T03:49:18;4.70;99.90
25024;DHT22;13033;50.936;5.334;2024-03-25T03:51:43;4.60;99.90
25024;DHT22;13033;50.936;5.334;2024-03-25T03:54:09;4.50;99.90
25024;DHT22;13033;50.936;5.334;2024-03-25T03:56:35;4.60;99.90
25024;DHT22;13033;50.936;5.334;2024-03-25T03:59:00;4.50;99.90
25024;DHT22;13033;50.936;5.334;2024-03-25T04:01:26;4.50;99.90
25024;DHT22;13033;50.936;5.334;2024-03-25T04:03:51;4.40;99.90
25024;DHT22;13033;50.936;5.334;2024-03-25T04:06:17;4.40;99.90
25024;DHT22;13033;50.936;5.334;2024-03-25T04:08:43;4.40;99.90
25024;DHT22;13033;50.936;5.334;2024-03-25T04:11:08;4.40;99.90
25024;DHT22;13033;50.936;5.334;2024-03-25T04:13:35;4.40;99.90
25024;DHT22;13033;50.936;5.334;2024-03-25T04:16:05;4.40;99.90
25024;DHT22;13033;50.936;5.334;2024-03-25T04:18:32;4.40;99.90
25024;DHT22;13033;50.936;5.334;2024-03-25T04:20:58;4.40;99.90
25024;DHT22;13033;50.936;5.334;2024-03-25T04:23:25;4.50;99.90
25024;DHT22;13033;50.936;5.334;2024-03-25T04:25:51;4.50;99.90
25024;DHT22;13033;50.936;5.334;2024-03-25T04:28:17;4.40;99.90
25024;DHT22;13033;50.936;5.334;2024-03-25T04:30:42;4.30;99.90
25024;DHT22;13033;50.936;5.334;2024-03-25T04:33:08;4.30;99.90
25024;DHT22;13033;50.936;5.334;2024-03-25T04:35:34;4.30;99.90
25024;DHT22;13033;50.936;5.334;2024-03-25T04:38:00;4.40;99.90
25024;DHT22;13033;50.936;5.334;2024-03-25T04:40:26;4.30;99.90
25024;DHT22;13033;50.936;5.334;2024-03-25T04:42:51;4.30;99.90
25024;DHT22;13033;50.936;5.334;2024-03-25T04:45:17;4.30;99.90
25024;DHT22;13033;50.936;5.334;2024-03-25T04:47:42;4.30;99.90
25024;DHT22;13033;50.936;5.334;2024-03-25T04:50:09;4.30;99.90
25024;DHT22;13033;50.936;5.334;2024-03-25T04:52:35;4.40;99.90
25024;DHT22;13033;50.936;5.334;2024-03-25T04:55:00;4.40;99.90
25024;DHT22;13033;50.936;5.334;2024-03-25T04:57:26;4.30;99.90
25024;DHT22;13033;50.936;5.334;2024-03-25T04:59:51;4.30;99.90
25024;DHT22;13033;50.936;5.334;2024-03-25T05:02:17;4.30;99.90
25024;DHT22;13033;50.936;5.334;2024-03-25T05:04:43;4.50;99.90
25024;DHT22;13033;50.936;5.334;2024-03-25T05:07:09;4.40;99.90
25024;DHT22;13033;50.936;5.334;2024-03-25T05:09:36;4.40;99.90
25024;DHT22;13033;50.936;5.334;2024-03-25T05:12:01;4.40;99.90
25024;DHT22;13033;50.936;5.334;2024-03-25T05:14:27;4.40;99.90
25024;DHT22;13033;50.936;5.334;2024-03-25T05:16:53;4.40;99.90
25024;DHT22;13033;50.936;5.334;2024-03-25T05:19:19;4.40;99.90
25024;DHT22;13033;50.936;5.334;2024-03-25T05:21:44;4.40;99.90
25024;DHT22;13033;50.936;5.334;2024-03-25T05:24:10;4.30;99.90
25024;DHT22;13033;50.936;5.334;2024-03-25T05:26:36;4.30;99.90
25024;DHT22;13033;50.936;5.334;2024-03-25T05:29:02;4.30;99.90
25024;DHT22;13033;50.936;5.334;2024-03-25T05:31:28;4.30;99.90
25024;DHT22;13033;50.936;5.334;2024-03-25T05:33:53;4.30;99.90
25024;DHT22;13033;50.936;5.334;2024-03-25T05:36:19;4.30;99.90
25024;DHT22;13033;50.936;5.334;2024-03-25T05:38:45;4.20;99.90
25024;DHT22;13033;50.936;5.334;2024-03-25T05:41:11;4.20;99.90
25024;DHT22;13033;50.936;5.334;2024-03-25T05:43:37;4.20;99.90
25024;DHT22;13033;50.936;5.334;2024-03-25T05:46:03;4.20;99.90
25024;DHT22;13033;50.936;5.334;2024-03-25T05:48:29;4.20;99.90
25024;DHT22;13033;50.936;5.334;2024-03-25T05:50:59;4.30;99.90
25024;DHT22;13033;50.936;5.334;2024-03-25T05:53:26;4.40;99.90
25024;DHT22;13033;50.936;5.334;2024-03-25T05:55:52;4.50;99.90
25024;DHT22;13033;50.936;5.334;2024-03-25T05:58:18;4.50;99.90
25024;DHT22;13033;50.936;5.334;2024-03-25T06:00:46;4.70;99.90
25024;DHT22;13033;50.936;5.334;2024-03-25T06:03:11;4.70;99.90
25024;DHT22;13033;50.936;5.334;2024-03-25T06:05:37;4.60;99.90
25024;DHT22;13033;50.936;5.334;2024-03-25T06:08:03;4.60;99.90
25024;DHT22;13033;50.936;5.334;2024-03-25T06:10:28;4.60;99.90
25024;DHT22;13033;50.936;5.334;2024-03-25T06:12:54;4.70;99.90
25024;DHT22;13033;50.936;5.334;2024-03-25T06:15:20;4.60;99.90
25024;DHT22;13033;50.936;5.334;2024-03-25T06:17:45;4.80;99.90
25024;DHT22;13033;50.936;5.334;2024-03-25T06:20:11;4.90;99.90
25024;DHT22;13033;50.936;5.334;2024-03-25T06:22:37;5.10;99.90
25024;DHT22;13033;50.936;5.334;2024-03-25T06:25:02;5.30;99.90
25024;DHT22;13033;50.936;5.334;2024-03-25T06:27:28;5.40;99.90
25024;DHT22;13033;50.936;5.334;2024-03-25T06:29:55;5.50;99.90
25024;DHT22;13033;50.936;5.334;2024-03-25T06:32:40;5.60;99.90
25024;DHT22;13033;50.936;5.334;2024-03-25T06:35:24;5.60;99.90
25024;DHT22;13033;50.936;5.334;2024-03-25T06:37:50;5.80;99.90
25024;DHT22;13033;50.936;5.334;2024-03-25T06:40:15;6.00;99.90
25024;DHT22;13033;50.936;5.334;2024-03-25T06:42:41;6.10;99.90
25024;DHT22;13033;50.936;5.334;2024-03-25T06:45:07;6.10;99.90
25024;DHT22;13033;50.936;5.334;2024-03-25T06:47:32;6.00;99.90
25024;DHT22;13033;50.936;5.334;2024-03-25T06:49:58;6.30;99.90
25024;DHT22;13033;50.936;5.334;2024-03-25T06:52:24;6.50;99.90
25024;DHT22;13033;50.936;5.334;2024-03-25T06:54:49;6.50;99.90
25024;DHT22;13033;50.936;5.334;2024-03-25T06:57:15;6.60;99.90
25024;DHT22;13033;50.936;5.334;2024-03-25T06:59:40;6.60;99.90
25024;DHT22;13033;50.936;5.334;2024-03-25T07:02:06;6.50;99.90
25024;DHT22;13033;50.936;5.334;2024-03-25T07:04:32;6.70;99.90
25024;DHT22;13033;50.936;5.334;2024-03-25T07:06:58;6.90;99.90
25024;DHT22;13033;50.936;5.334;2024-03-25T07:09:24;6.90;99.90
25024;DHT22;13033;50.936;5.334;2024-03-25T07:11:50;6.90;99.90
25024;DHT22;13033;50.936;5.334;2024-03-25T07:14:15;6.60;99.90
25024;DHT22;13033;50.936;5.334;2024-03-25T07:16:41;6.70;99.90
25024;DHT22;13033;50.936;5.334;2024-03-25T07:19:06;6.70;99.90
25024;DHT22;13033;50.936;5.334;2024-03-25T07:21:32;6.80;99.90
25024;DHT22;13033;50.936;5.334;2024-03-25T07:23:58;6.80;99.90
25024;DHT22;13033;50.936;5.334;2024-03-25T07:26:23;6.80;99.90
25024;DHT22;13033;50.936;5.334;2024-03-25T07:28:49;6.70;99.90
25024;DHT22;13033;50.936;5.334;2024-03-25T07:31:15;6.70;99.90
25024;DHT22;13033;50.936;5.334;2024-03-25T07:33:40;6.70;99.90
25024;DHT22;13033;50.936;5.334;2024-03-25T07:36:06;6.70;99.90
25024;DHT22;13033;50.936;5.334;2024-03-25T07:38:32;6.80;99.90
25024;DHT22;13033;50.936;5.334;2024-03-25T07:41:05;6.80;99.90
25024;DHT22;13033;50.936;5.334;2024-03-25T07:43:31;7.00;99.90
25024;DHT22;13033;50.936;5.334;2024-03-25T07:45:57;7.10;99.90
25024;DHT22;13033;50.936;5.334;2024-03-25T07:48:22;7.10;99.90
25024;DHT22;13033;50.936;5.334;2024-03-25T07:50:48;7.30;99.90
25024;DHT22;13033;50.936;5.334;2024-03-25T07:53:14;7.50;99.90
25024;DHT22;13033;50.936;5.334;2024-03-25T07:55:40;7.50;99.90
25024;DHT22;13033;50.936;5.334;2024-03-25T07:58:05;7.70;99.90
25024;DHT22;13033;50.936;5.334;2024-03-25T08:00:31;7.80;11.40
25024;DHT22;13033;50.936;5.334;2024-03-25T08:02:56;7.80;2.70
25024;DHT22;13033;50.936;5.334;2024-03-25T08:05:22;7.80;1.00
25024;DHT22;13033;50.936;5.334;2024-03-25T08:07:48;8.00;1.00
25024;DHT22;13033;50.936;5.334;2024-03-25T08:10:13;8.10;1.00
25024;DHT22;13033;50.936;5.334;2024-03-25T08:12:39;8.10;1.00
25024;DHT22;13033;50.936;5.334;2024-03-25T08:15:05;8.00;1.00
25024;DHT22;13033;50.936;5.334;2024-03-25T08:17:31;8.20;1.00
25024;DHT22;13033;50.936;5.334;2024-03-25T08:19:56;8.30;1.00
25024;DHT22;13033;50.936;5.334;2024-03-25T08:22:22;8.50;1.00
25024;DHT22;13033;50.936;5.334;2024-03-25T08:24:47;8.60;1.00
25024;DHT22;13033;50.936;5.334;2024-03-25T08:27:13;8.70;1.00
25024;DHT22;13033;50.936;5.334;2024-03-25T08:29:39;8.70;1.00
25024;DHT22;13033;50.936;5.334;2024-03-25T08:32:05;8.80;1.00
25024;DHT22;13033;50.936;5.334;2024-03-25T08:34:31;8.80;1.00
25024;DHT22;13033;50.936;5.334;2024-03-25T08:36:56;8.90;1.00
25024;DHT22;13033;50.936;5.334;2024-03-25T08:39:22;8.80;1.00
25024;DHT22;13033;50.936;5.334;2024-03-25T08:41:47;8.90;1.00
25024;DHT22;13033;50.936;5.334;2024-03-25T08:44:13;8.90;1.00
25024;DHT22;13033;50.936;5.334;2024-03-25T08:46:39;9.00;1.00
25024;DHT22;13033;50.936;5.334;2024-03-25T08:49:04;9.20;1.00
25024;DHT22;13033;50.936;5.334;2024-03-25T08:51:30;9.20;1.00
25024;DHT22;13033;50.936;5.334;2024-03-25T08:53:56;9.40;1.00
25024;DHT22;13033;50.936;5.334;2024-03-25T08:56:21;9.50;1.00
25024;DHT22;13033;50.936;5.334;2024-03-25T08:58:47;9.40;1.00
25024;DHT22;13033;50.936;5.334;2024-03-25T09:01:12;9.50;1.00
25024;DHT22;13033;50.936;5.334;2024-03-25T09:03:41;9.60;1.00
25024;DHT22;13033;50.936;5.334;2024-03-25T09:06:07;9.30;1.00
25024;DHT22;13033;50.936;5.334;2024-03-25T09:08:33;9.20;1.00
25024;DHT22;13033;50.936;5.334;2024-03-25T09:11:19;9.30;1.00
25024;DHT22;13033;50.936;5.334;2024-03-25T09:13:45;9.70;1.00
25024;DHT22;13033;50.936;5.334;2024-03-25T09:16:10;9.70;1.00
25024;DHT22;13033;50.936;5.334;2024-03-25T09:18:36;9.80;1.00
25024;DHT22;13033;50.936;5.334;2024-03-25T09:21:02;9.80;1.00
25024;DHT22;13033;50.936;5.334;2024-03-25T09:23:27;9.70;1.00
25024;DHT22;13033;50.936;5.334;2024-03-25T09:25:53;9.80;1.00
25024;DHT22;13033;50.936;5.334;2024-03-25T09:28:19;10.00;1.00
25024;DHT22;13033;50.936;5.334;2024-03-25T09:30:47;10.10;1.00
25024;DHT22;13033;50.936;5.334;2024-03-25T09:33:14;10.20;1.00
25024;DHT22;13033;50.936;5.334;2024-03-25T09:35:39;10.40;1.00
25024;DHT22;13033;50.936;5.334;2024-03-25T09:38:06;10.60;1.00
25024;DHT22;13033;50.936;5.334;2024-03-25T09:40:31;10.70;1.00
25024;DHT22;13033;50.936;5.334;2024-03-25T09:42:58;10.80;1.00
25024;DHT22;13033;50.936;5.334;2024-03-25T09:45:25;10.80;1.00
25024;DHT22;13033;50.936;5.334;2024-03-25T09:47:53;11.00;1.00
25024;DHT22;13033;50.936;5.334;2024-03-25T09:50:20;10.90;99.90
25024;DHT22;13033;50.936;5.334;2024-03-25T09:52:49;11.00;99.90
25024;DHT22;13033;50.936;5.334;2024-03-25T09:55:15;11.10;99.90
25024;DHT22;13033;50.936;5.334;2024-03-25T09:57:44;11.30;99.90
25024;DHT22;13033;50.936;5.334;2024-03-25T10:00:11;11.40;99.90
25024;DHT22;13033;50.936;5.334;2024-03-25T10:02:38;11.40;99.90
25024;DHT22;13033;50.936;5.334;2024-03-25T10:05:05;11.40;99.90
25024;DHT22;13033;50.936;5.334;2024-03-25T10:07:31;11.50;99.90
25024;DHT22;13033;50.936;5.334;2024-03-25T10:09:56;11.60;99.90
25024;DHT22;13033;50.936;5.334;2024-03-25T10:12:24;11.60;99.90
25024;DHT22;13033;50.936;5.334;2024-03-25T10:14:50;11.60;99.90
25024;DHT22;13033;50.936;5.334;2024-03-25T10:17:15;11.50;99.90
25024;DHT22;13033;50.936;5.334;2024-03-25T10:19:41;11.30;99.90
25024;DHT22;13033;50.936;5.334;2024-03-25T10:22:08;11.30;99.90
25024;DHT22;13033;50.936;5.334;2024-03-25T10:24:41;11.60;99.90
25024;DHT22;13033;50.936;5.334;2024-03-25T10:27:23;11.80;99.90
25024;DHT22;13033;50.936;5.334;2024-03-25T10:29:52;11.80;99.90
25024;DHT22;13033;50.936;5.334;2024-03-25T10:32:18;11.70;1.00
25024;DHT22;13033;50.936;5.334;2024-03-25T10:34:44;11.70;99.90
25024;DHT22;13033;50.936;5.334;2024-03-25T10:37:11;11.70;1.00
25024;DHT22;13033;50.936;5.334;2024-03-25T10:42:15;11.70;1.00
25024;DHT22;13033;50.936;5.334;2024-03-25T10:44:44;12.00;99.90
25024;DHT22;13033;50.936;5.334;2024-03-25T10:47:12;12.30;1.00
25024;DHT22;13033;50.936;5.334;2024-03-25T10:49:48;12.20;99.90
25024;DHT22;13033;50.936;5.334;2024-03-25T10:52:15;12.20;1.00
25024;DHT22;13033;50.936;5.334;2024-03-25T10:54:43;12.40;99.90
25024;DHT22;13033;50.936;5.334;2024-03-25T10:57:11;12.60;99.90
25024;DHT22;13033;50.936;5.334;2024-03-25T10:59:38;12.50;99.90
25024;DHT22;13033;50.936;5.334;2024-03-25T11:02:07;12.60;99.90
25024;DHT22;13033;50.936;5.334;2024-03-25T11:04:33;12.70;99.90
25024;DHT22;13033;50.936;5.334;2024-03-25T11:07:09;12.80;99.90
25024;DHT22;13033;50.936;5.334;2024-03-25T11:09:36;12.70;1.00
25024;DHT22;13033;50.936;5.334;2024-03-25T11:12:02;12.80;1.00
25024;DHT22;13033;50.936;5.334;2024-03-25T11:14:28;12.90;99.90
25024;DHT22;13033;50.936;5.334;2024-03-25T11:16:55;13.10;99.90
25024;DHT22;13033;50.936;5.334;2024-03-25T11:19:25;13.20;1.00
25024;DHT22;13033;50.936;5.334;2024-03-25T11:21:51;13.10;1.00
25024;DHT22;13033;50.936;5.334;2024-03-25T11:24:27;13.00;99.90
25024;DHT22;13033;50.936;5.334;2024-03-25T11:26:53;13.10;1.00
25024;DHT22;13033;50.936;5.334;2024-03-25T11:29:19;13.20;99.90
25024;DHT22;13033;50.936;5.334;2024-03-25T11:31:45;13.20;99.90
25024;DHT22;13033;50.936;5.334;2024-03-25T11:34:11;13.40;1.00
25024;DHT22;13033;50.936;5.334;2024-03-25T11:36:36;13.20;1.00
25024;DHT22;13033;50.936;5.334;2024-03-25T11:39:03;13.50;99.90
25024;DHT22;13033;50.936;5.334;2024-03-25T11:41:31;13.80;99.90
25024;DHT22;13033;50.936;5.334;2024-03-25T11:43:57;13.80;1.00
25024;DHT22;13033;50.936;5.334;2024-03-25T11:46:25;13.70;1.00
25024;DHT22;13033;50.936;5.334;2024-03-25T11:48:51;13.80;1.00
25024;DHT22;13033;50.936;5.334;2024-03-25T11:51:17;14.00;99.90
25024;DHT22;13033;50.936;5.334;2024-03-25T11:53:43;14.50;99.90
25024;DHT22;13033;50.936;5.334;2024-03-25T11:56:11;14.70;99.90
25024;DHT22;13033;50.936;5.334;2024-03-25T11:58:37;14.70;99.90
25024;DHT22;13033;50.936;5.334;2024-03-25T12:01:03;14.40;74.00
25024;DHT22;13033;50.936;5.334;2024-03-25T12:03:29;14.10;59.90
25024;DHT22;13033;50.936;5.334;2024-03-25T12:05:55;14.00;57.70
25024;DHT22;13033;50.936;5.334;2024-03-25T12:08:21;13.60;36.00
25024;DHT22;13033;50.936;5.334;2024-03-25T12:10:51;13.30;11.30
25024;DHT22;13033;50.936;5.334;2024-03-25T12:13:38;13.40;1.00
25024;DHT22;13033;50.936;5.334;2024-03-25T12:16:07;13.60;1.60
25024;DHT22;13033;50.936;5.334;2024-03-25T12:18:34;13.80;30.70
25024;DHT22;13033;50.936;5.334;2024-03-25T12:21:00;14.00;1.00
25024;DHT22;13033;50.936;5.334;2024-03-25T12:23:32;13.90;1.00
25024;DHT22;13033;50.936;5.334;2024-03-25T12:25:59;13.80;1.00
25024;DHT22;13033;50.936;5.334;2024-03-25T12:28:24;14.10;18.70
25024;DHT22;13033;50.936;5.334;2024-03-25T12:30:54;14.20;9.00
25024;DHT22;13033;50.936;5.334;2024-03-25T12:33:23;14.00;2.20
25024;DHT22;13033;50.936;5.334;2024-03-25T12:35:50;14.00;1.00
25024;DHT22;13033;50.936;5.334;2024-03-25T12:38:26;14.10;1.00
25024;DHT22;13033;50.936;5.334;2024-03-25T12:40:53;14.20;1.00
25024;DHT22;13033;50.936;5.334;2024-03-25T12:43:19;14.60;1.00
25024;DHT22;13033;50.936;5.334;2024-03-25T12:45:45;15.00;1.00
25024;DHT22;13033;50.936;5.334;2024-03-25T12:48:11;15.20;1.00
25024;DHT22;13033;50.936;5.334;2024-03-25T12:50:37;15.30;1.00
25024;DHT22;13033;50.936;5.334;2024-03-25T12:53:03;15.50;1.00
25024;DHT22;13033;50.936;5.334;2024-03-25T12:55:29;15.50;1.00
25024;DHT22;13033;50.936;5.334;2024-03-25T12:57:55;15.10;1.00
25024;DHT22;13033;50.936;5.334;2024-03-25T13:00:21;14.70;1.00
25024;DHT22;13033;50.936;5.334;2024-03-25T13:02:46;14.50;1.00
25024;DHT22;13033;50.936;5.334;2024-03-25T13:05:12;14.40;1.00
25024;DHT22;13033;50.936;5.334;2024-03-25T13:07:38;14.50;1.00
25024;DHT22;13033;50.936;5.334;2024-03-25T13:10:04;14.70;1.00
25024;DHT22;13033;50.936;5.334;2024-03-25T13:12:30;14.80;1.00
25024;DHT22;13033;50.936;5.334;2024-03-25T13:14:56;14.90;1.00
25024;DHT22;13033;50.936;5.334;2024-03-25T13:17:24;15.00;1.00
25024;DHT22;13033;50.936;5.334;2024-03-25T13:19:50;15.20;99.90
25024;DHT22;13033;50.936;5.334;2024-03-25T13:22:16;15.50;99.90
25024;DHT22;13033;50.936;5.334;2024-03-25T13:24:41;15.20;99.90
25024;DHT22;13033;50.936;5.334;2024-03-25T13:27:07;15.10;99.90
25024;DHT22;13033;50.936;5.334;2024-03-25T13:29:32;15.10;99.90
25024;DHT22;13033;50.936;5.334;2024-03-25T13:32:01;15.40;99.90
25024;DHT22;13033;50.936;5.334;2024-03-25T13:34:27;15.70;99.90
25024;DHT22;13033;50.936;5.334;2024-03-25T13:36:53;16.00;99.90
25024;DHT22;13033;50.936;5.334;2024-03-25T13:39:18;15.60;99.90
25024;DHT22;13033;50.936;5.334;2024-03-25T13:41:44;15.30;99.90
25024;DHT22;13033;50.936;5.334;2024-03-25T13:44:11;15.20;99.90
25024;DHT22;13033;50.936;5.334;2024-03-25T13:46:36;15.20;99.90
25024;DHT22;13033;50.936;5.334;2024-03-25T13:49:02;15.20;99.90
25024;DHT22;13033;50.936;5.334;2024-03-25T13:51:28;15.20;99.90
25024;DHT22;13033;50.936;5.334;2024-03-25T13:53:53;15.40;99.90
25024;DHT22;13033;50.936;5.334;2024-03-25T13:56:19;15.40;99.90
25024;DHT22;13033;50.936;5.334;2024-03-25T13:58:45;15.30;99.90
25024;DHT22;13033;50.936;5.334;2024-03-25T14:01:10;15.10;99.90
25024;DHT22;13033;50.936;5.334;2024-03-25T14:03:36;15.10;99.90
25024;DHT22;13033;50.936;5.334;2024-03-25T14:06:02;15.40;99.90
25024;DHT22;13033;50.936;5.334;2024-03-25T14:08:28;15.70;99.90
25024;DHT22;13033;50.936;5.334;2024-03-25T14:11:01;16.10;99.90
25024;DHT22;13033;50.936;5.334;2024-03-25T14:13:28;15.70;99.90
25024;DHT22;13033;50.936;5.334;2024-03-25T14:15:54;15.60;99.90
25024;DHT22;13033;50.936;5.334;2024-03-25T14:18:20;15.50;99.90
25024;DHT22;13033;50.936;5.334;2024-03-25T14:20:46;15.60;99.90
25024;DHT22;13033;50.936;5.334;2024-03-25T14:23:12;15.70;99.90
25024;DHT22;13033;50.936;5.334;2024-03-25T14:25:37;15.60;99.90
25024;DHT22;13033;50.936;5.334;2024-03-25T14:28:03;15.60;99.90
25024;DHT22;13033;50.936;5.334;2024-03-25T14:30:29;15.10;99.90
25024;DHT22;13033;50.936;5.334;2024-03-25T14:32:55;15.10;99.90
25024;DHT22;13033;50.936;5.334;2024-03-25T14:35:21;15.10;99.90
25024;DHT22;13033;50.936;5.334;2024-03-25T14:37:48;15.10;99.90
25024;DHT22;13033;50.936;5.334;2024-03-25T14:40:15;15.00;99.90
25024;DHT22;13033;50.936;5.334;2024-03-25T14:42:42;14.70;99.90
25024;DHT22;13033;50.936;5.334;2024-03-25T14:45:08;14.60;99.90
25024;DHT22;13033;50.936;5.334;2024-03-25T14:47:34;14.80;99.90
25024;DHT22;13033;50.936;5.334;2024-03-25T14:50:00;14.80;99.90
25024;DHT22;13033;50.936;5.334;2024-03-25T14:52:25;14.90;99.90
25024;DHT22;13033;50.936;5.334;2024-03-25T14:54:51;15.70;99.90
25024;DHT22;13033;50.936;5.334;2024-03-25T14:57:17;16.60;99.90
25024;DHT22;13033;50.936;5.334;2024-03-25T14:59:43;17.80;99.90
25024;DHT22;13033;50.936;5.334;2024-03-25T15:02:09;18.10;99.90
25024;DHT22;13033;50.936;5.334;2024-03-25T15:04:41;18.40;99.90
25024;DHT22;13033;50.936;5.334;2024-03-25T15:07:10;18.50;99.90
25024;DHT22;13033;50.936;5.334;2024-03-25T15:09:36;18.30;99.90
25024;DHT22;13033;50.936;5.334;2024-03-25T15:12:01;19.00;99.90
25024;DHT22;13033;50.936;5.334;2024-03-25T15:14:31;19.70;99.90
25024;DHT22;13033;50.936;5.334;2024-03-25T15:16:57;20.40;99.90
25024;DHT22;13033;50.936;5.334;2024-03-25T15:19:26;20.50;99.90
25024;DHT22;13033;50.936;5.334;2024-03-25T15:21:52;19.20;99.90
25024;DHT22;13033;50.936;5.334;2024-03-25T15:24:17;18.90;99.90
25024;DHT22;13033;50.936;5.334;2024-03-25T15:26:43;19.20;99.90
25024;DHT22;13033;50.936;5.334;2024-03-25T15:29:09;18.70;99.90
25024;DHT22;13033;50.936;5.334;2024-03-25T15:31:35;18.20;99.90
25024;DHT22;13033;50.936;5.334;2024-03-25T15:34:01;17.70;99.90
25024;DHT22;13033;50.936;5.334;2024-03-25T15:36:26;17.60;99.90
25024;DHT22;13033;50.936;5.334;2024-03-25T15:38:54;17.80;99.90